createdAt,value
2022-08-04T00:00:57.875Z,95.51
2022-08-04T00:03:30.379Z,95.03
2022-08-04T00:06:02.123Z,95.94
2022-08-04T00:08:38.607Z,96.65
2022-08-04T00:11:08.768Z,96.57
2022-08-04T00:13:52.700Z,96.21
2022-08-04T00:16:37.735Z,96.87
2022-08-04T00:19:12.352Z,97.51
2022-08-04T00:21:44.093Z,97.10
2022-08-04T00:24:13.003Z,96.62
2022-08-04T00:26:41.260Z,96.68
2022-08-04T00:29:09.113Z,96.34
2022-08-04T00:31:56.576Z,95.74
2022-08-04T00:34:27.783Z,95.00
2022-08-04T00:36:56.939Z,94.76
2022-08-04T00:39:25.357Z,94.69
2022-08-04T00:42:05.128Z,94.40
2022-08-04T00:44:42.270Z,94.80
2022-08-04T00:47:20.452Z,95.38
2022-08-04T00:50:06.052Z,95.72
2022-08-04T00:52:59.496Z,96.42
2022-08-04T00:55:46.830Z,96.10
2022-08-04T00:58:24.781Z,95.60
2022-08-04T01:00:59.596Z,94.82
2022-08-04T01:03:42.140Z,93.87
2022-08-04T01:06:17.848Z,93.21
2022-08-04T01:09:00.718Z,93.55
2022-08-04T01:11:56.952Z,93.29
2022-08-04T01:14:38.830Z,93.09
2022-08-04T01:17:13.896Z,92.70
2022-08-04T01:20:02.401Z,92.79
2022-08-04T01:23:06.864Z,93.00
2022-08-04T01:25:59.687Z,92.63
2022-08-04T01:28:31.509Z,92.56
2022-08-04T01:31:06.350Z,92.44
2022-08-04T01:34:03.485Z,92.12
2022-08-04T01:36:26.026Z,91.28
2022-08-04T01:38:55.294Z,91.33
2022-08-04T01:41:32.262Z,91.43
2022-08-04T01:44:01.817Z,91.37
2022-08-04T01:46:34.988Z,91.35
2022-08-04T01:49:04.092Z,91.40
2022-08-04T01:51:35.972Z,91.57
2022-08-04T01:54:03.751Z,91.42
2022-08-04T01:56:32.238Z,91.23
2022-08-04T01:59:00.503Z,91.75
2022-08-04T02:01:28.295Z,91.62
2022-08-04T02:04:21.273Z,91.48
2022-08-04T02:06:51.467Z,91.70
2022-08-04T02:09:25.421Z,91.42
2022-08-04T02:12:01.501Z,91.74
2022-08-04T02:14:48.087Z,91.69
2022-08-04T02:17:17.078Z,91.68
2022-08-04T02:20:07.081Z,92.27
2022-08-04T02:22:36.508Z,92.92
2022-08-04T02:25:07.944Z,92.99
2022-08-04T02:28:03.918Z,92.50
2022-08-04T02:30:35.862Z,92.90
2022-08-04T02:33:05.335Z,93.12
2022-08-04T02:35:37.571Z,92.90
2022-08-04T02:38:13.779Z,92.40
2022-08-04T02:40:43.031Z,92.71
2022-08-04T02:43:11.212Z,92.30
2022-08-04T02:45:42.966Z,92.46
2022-08-04T02:48:30.972Z,92.44
2022-08-04T02:51:00.853Z,92.49
2022-08-04T02:53:29.808Z,92.71
2022-08-04T02:55:58.373Z,92.70
2022-08-04T02:58:29.088Z,93.45
2022-08-04T03:00:56.827Z,92.85
2022-08-04T03:03:28.844Z,93.32
2022-08-04T03:06:46.993Z,93.66
2022-08-04T03:09:35.290Z,93.70
2022-08-04T03:12:51.025Z,93.95
2022-08-04T03:15:55.503Z,94.04
2022-08-04T03:18:50.414Z,94.02
2022-08-04T03:21:31.488Z,94.17
2022-08-04T03:24:30.040Z,94.37
2022-08-04T03:27:11.542Z,94.39
2022-08-04T03:30:07.015Z,94.66
2022-08-04T03:33:03.948Z,94.79
2022-08-04T03:35:53.442Z,95.40
2022-08-04T03:38:59.621Z,95.57
2022-08-04T03:41:54.892Z,95.58
2022-08-04T03:44:41.655Z,95.14
2022-08-04T03:47:26.005Z,94.63
2022-08-04T03:50:14.907Z,93.85
2022-08-04T03:53:10.443Z,93.33
2022-08-04T03:55:48.371Z,93.35
2022-08-04T03:58:50.802Z,94.18
2022-08-04T04:01:41.607Z,94.46
2022-08-04T04:04:39.170Z,94.40
2022-08-04T04:07:35.722Z,94.71
2022-08-04T04:10:33.984Z,93.22
2022-08-04T04:13:29.556Z,93.31
2022-08-04T04:16:19.305Z,93.25
2022-08-04T04:19:31.423Z,93.03
2022-08-04T04:22:14.297Z,92.46
2022-08-04T04:24:53.474Z,92.09
2022-08-04T04:27:32.688Z,92.16
2022-08-04T04:30:07.067Z,91.79
2022-08-04T04:32:49.758Z,91.84
2022-08-04T04:35:27.646Z,92.09
2022-08-04T04:38:08.967Z,91.36
2022-08-04T04:40:45.242Z,91.23
2022-08-04T04:43:51.759Z,90.89
2022-08-04T04:46:17.329Z,91.00
2022-08-04T04:48:53.977Z,89.96
2022-08-04T04:51:25.107Z,89.70
2022-08-04T04:54:00.519Z,89.59
2022-08-04T04:56:29.995Z,89.50
2022-08-04T04:58:59.030Z,88.80
2022-08-04T05:02:00.848Z,88.14
2022-08-04T05:05:08.477Z,87.78
2022-08-04T05:07:50.358Z,87.68
2022-08-04T05:10:28.259Z,87.17
2022-08-04T05:14:35.579Z,87.16
2022-08-04T05:16:03.194Z,87.14
2022-08-04T05:18:34.417Z,84.60
2022-08-04T05:21:14.790Z,83.80
2022-08-04T05:23:45.152Z,80.96
2022-08-04T05:26:14.609Z,81.19
2022-08-04T05:28:44.229Z,80.90
2022-08-04T05:31:13.235Z,81.14
2022-08-04T05:33:42.740Z,80.75
2022-08-04T05:36:32.677Z,78.68
2022-08-04T05:39:07.282Z,79.19
2022-08-04T05:41:45.436Z,80.82
2022-08-04T05:44:16.707Z,81.15
2022-08-04T05:46:45.575Z,81.17
2022-08-04T05:49:22.729Z,79.85
2022-08-04T05:51:52.301Z,80.77
2022-08-04T05:54:20.982Z,80.38
2022-08-04T05:56:50.026Z,80.42
2022-08-04T05:59:18.262Z,80.13
2022-08-04T06:01:55.802Z,78.55
2022-08-04T06:04:28.664Z,76.85
2022-08-04T06:06:57.808Z,76.86
2022-08-04T06:09:25.599Z,76.43
2022-08-04T06:12:01.858Z,74.01
2022-08-04T06:14:34.082Z,74.83
2022-08-04T06:17:03.362Z,76.26
2022-08-04T06:19:59.803Z,72.47
2022-08-04T06:22:21.179Z,72.65
2022-08-04T06:24:50.228Z,72.59
2022-08-04T06:27:18.860Z,72.22
2022-08-04T06:29:51.617Z,71.42
2022-08-04T06:32:34.769Z,70.00
2022-08-04T06:35:07.776Z,70.30
2022-08-04T06:37:42.606Z,68.50
2022-08-04T06:40:31.373Z,68.56
2022-08-04T06:43:01.294Z,68.43
2022-08-04T06:45:30.107Z,67.24
2022-08-04T06:47:58.425Z,66.51
2022-08-04T06:51:26.462Z,67.00
2022-08-04T06:53:15.760Z,65.67
2022-08-04T06:55:45.350Z,64.51
2022-08-04T06:58:13.694Z,64.61
2022-08-04T07:00:43.438Z,65.35
2022-08-04T07:03:11.890Z,64.82
2022-08-04T07:05:39.751Z,61.14
2022-08-04T07:08:08.277Z,61.48
2022-08-04T07:10:38.265Z,61.76
2022-08-04T07:13:07.304Z,61.17
2022-08-04T07:15:35.148Z,59.28
2022-08-04T07:18:04.758Z,60.50
2022-08-04T07:20:36.225Z,59.72
2022-08-04T07:23:05.196Z,58.07
2022-08-04T07:26:11.161Z,58.57
2022-08-04T07:28:23.612Z,57.84
2022-08-04T07:30:51.747Z,58.19
2022-08-04T07:33:19.981Z,57.88
2022-08-04T07:36:09.038Z,59.44
2022-08-04T07:38:50.646Z,60.04
2022-08-04T07:41:39.009Z,58.53
2022-08-04T07:44:08.743Z,56.66
2022-08-04T07:46:37.165Z,56.57
2022-08-04T07:49:05.514Z,54.53
2022-08-04T07:51:35.303Z,53.26
2022-08-04T07:54:04.058Z,52.52
2022-08-04T07:56:32.513Z,53.83
2022-08-04T07:59:01.094Z,52.13
2022-08-04T08:01:30.658Z,53.28
2022-08-04T08:04:00.556Z,50.75
2022-08-04T08:06:32.126Z,52.19
2022-08-04T08:09:13.340Z,51.57
2022-08-04T08:12:35.248Z,52.07
2022-08-04T08:14:31.444Z,50.85
2022-08-04T08:17:02.535Z,48.08
2022-08-04T08:19:30.495Z,49.72
2022-08-04T08:21:59.931Z,47.82
2022-08-04T08:24:28.507Z,47.55
2022-08-04T08:26:56.833Z,46.62
2022-08-04T08:29:25.594Z,47.03
2022-08-04T08:31:56.592Z,46.53
2022-08-04T08:34:29.136Z,45.68
2022-08-04T08:37:00.962Z,45.27
2022-08-04T08:39:33.936Z,46.68
2022-08-04T08:42:29.953Z,44.73
2022-08-04T08:45:19.121Z,45.34
2022-08-04T08:48:33.566Z,45.50
2022-08-04T08:51:14.389Z,46.18
2022-08-04T08:53:52.701Z,44.40
2022-08-04T08:56:31.415Z,45.06
2022-08-04T08:59:15.441Z,45.77
2022-08-04T09:01:53.360Z,45.41
2022-08-04T09:04:49.919Z,44.45
2022-08-04T09:07:32.703Z,43.58
2022-08-04T09:10:09.513Z,45.78
2022-08-04T09:12:42.595Z,46.79
2022-08-04T09:15:17.027Z,46.53
2022-08-04T09:17:50.127Z,47.25
2022-08-04T09:20:24.315Z,46.41
2022-08-04T09:22:58.111Z,44.59
2022-08-04T09:25:30.325Z,43.74
2022-08-04T09:28:09.079Z,44.32
2022-08-04T09:30:42.487Z,45.42
2022-08-04T09:33:17.445Z,45.30
2022-08-04T09:35:56.466Z,44.30
2022-08-04T09:38:31.242Z,45.26
2022-08-04T09:41:05.261Z,45.40
2022-08-04T09:44:48.838Z,44.49
2022-08-04T09:46:52.300Z,45.79
2022-08-04T09:49:22.822Z,44.31
2022-08-04T09:52:04.236Z,43.70
2022-08-04T09:54:46.634Z,42.97
2022-08-04T09:57:18.498Z,45.09
2022-08-04T09:59:54.955Z,45.43
2022-08-04T10:02:23.918Z,44.16
2022-08-04T10:04:53.327Z,43.49
2022-08-04T10:07:39.470Z,45.31
2022-08-04T10:10:20.940Z,45.93
2022-08-04T10:13:13.693Z,44.07
2022-08-04T10:15:46.003Z,43.38
2022-08-04T10:18:23.740Z,42.28
2022-08-04T10:21:06.214Z,41.59
2022-08-04T10:23:55.727Z,40.38
2022-08-04T10:26:34.746Z,42.39
2022-08-04T10:29:06.935Z,43.02
2022-08-04T10:31:37.756Z,41.78
2022-08-04T10:34:12.616Z,43.07
2022-08-04T10:36:52.820Z,42.23
2022-08-04T10:39:43.377Z,41.70
2022-08-04T10:42:22.762Z,38.54
2022-08-04T10:45:02.442Z,42.20
2022-08-04T10:47:35.372Z,40.67
2022-08-04T10:50:12.666Z,40.44
2022-08-04T10:52:46.367Z,39.83
2022-08-04T10:55:20.456Z,40.51
2022-08-04T10:57:52.339Z,40.85
2022-08-04T11:00:25.197Z,41.99
2022-08-04T11:02:55.164Z,43.07
2022-08-04T11:05:28.669Z,42.93
2022-08-04T11:07:59.824Z,42.05
2022-08-04T11:10:27.321Z,40.51
2022-08-04T11:12:59.089Z,41.34
2022-08-04T11:15:29.370Z,41.32
2022-08-04T11:17:58.947Z,39.71
2022-08-04T11:20:35.545Z,41.90
2022-08-04T11:23:08.095Z,41.31
2022-08-04T11:25:44.646Z,39.51
2022-08-04T11:28:23.805Z,38.35
2022-08-04T11:30:54.923Z,40.20
2022-08-04T11:33:23.323Z,39.57
2022-08-04T11:35:56.376Z,38.83
2022-08-04T11:38:32.277Z,37.69
2022-08-04T11:41:05.350Z,36.84
2022-08-04T11:43:58.667Z,38.01
2022-08-04T11:46:29.923Z,37.64
2022-08-04T11:48:59.074Z,38.68
2022-08-04T11:51:28.376Z,38.43
2022-08-04T11:53:56.994Z,37.47
2022-08-04T11:56:36.521Z,36.83
2022-08-04T11:59:08.647Z,37.64
2022-08-04T12:01:37.363Z,39.23
2022-08-04T12:04:10.594Z,38.82
2022-08-04T12:06:56.888Z,38.40
2022-08-04T12:09:31.412Z,38.08
2022-08-04T12:12:06.950Z,38.05
2022-08-04T12:14:45.429Z,36.87
2022-08-04T12:17:14.425Z,35.76
2022-08-04T12:20:04.629Z,35.50
2022-08-04T12:22:36.095Z,36.18
2022-08-04T12:25:06.984Z,36.18
2022-08-04T12:27:37.541Z,34.09
2022-08-04T12:31:02.566Z,35.02
2022-08-04T12:33:00.570Z,35.02
2022-08-04T12:35:32.382Z,36.52
2022-08-04T12:38:04.666Z,37.07
2022-08-04T12:40:38.242Z,37.25
2022-08-04T12:43:10.629Z,36.39
2022-08-04T12:45:44.107Z,35.06
2022-08-04T12:48:21.407Z,36.13
2022-08-04T12:50:50.082Z,34.44
2022-08-04T12:53:31.314Z,36.28
2022-08-04T12:56:01.759Z,33.63
2022-08-04T12:58:41.989Z,34.88
2022-08-04T13:02:08.161Z,36.71
2022-08-04T13:04:11.201Z,35.07
2022-08-04T13:06:39.927Z,35.61
2022-08-04T13:09:09.739Z,36.01
2022-08-04T13:11:50.921Z,34.73
2022-08-04T13:14:27.176Z,34.58
2022-08-04T13:17:01.168Z,35.78
2022-08-04T13:19:29.549Z,36.11
2022-08-04T13:22:03.072Z,34.79
2022-08-04T13:24:34.198Z,35.34
2022-08-04T13:27:09.264Z,35.94
2022-08-04T13:30:00.191Z,34.42
2022-08-04T13:32:30.208Z,32.95
2022-08-04T13:34:59.278Z,32.86
2022-08-04T13:37:32.318Z,32.18
2022-08-04T13:40:00.566Z,31.26
2022-08-04T13:42:28.600Z,31.03
2022-08-04T13:44:58.666Z,29.72
2022-08-04T13:47:30.404Z,30.52
2022-08-04T13:50:16.552Z,31.06
2022-08-04T13:52:45.812Z,29.79
2022-08-04T13:55:21.355Z,28.70
2022-08-04T13:57:52.006Z,29.79
2022-08-04T14:00:29.632Z,28.38
2022-08-04T14:03:03.299Z,27.45
2022-08-04T14:05:58.733Z,27.48
2022-08-04T14:08:22.038Z,27.42
2022-08-04T14:10:55.126Z,27.23
2022-08-04T14:13:30.557Z,27.50
2022-08-04T14:16:17.333Z,28.08
2022-08-04T14:18:46.719Z,27.45
2022-08-04T14:21:15.489Z,29.07
2022-08-04T14:23:47.563Z,30.42
2022-08-04T14:26:31.541Z,29.67
2022-08-04T14:29:26.742Z,29.43
2022-08-04T14:32:05.954Z,29.41
2022-08-04T14:34:42.651Z,28.63
2022-08-04T14:37:19.373Z,27.83
2022-08-04T14:40:08.621Z,28.30
2022-08-04T14:42:44.513Z,27.88
2022-08-04T14:45:31.650Z,27.95
2022-08-04T14:47:59.485Z,26.44
2022-08-04T14:50:41.386Z,27.79
2022-08-04T14:53:11.058Z,28.25
2022-08-04T14:55:39.837Z,28.16
2022-08-04T14:58:35.211Z,28.15
2022-08-04T15:00:57.763Z,28.79
2022-08-04T15:03:26.393Z,29.48
2022-08-04T15:06:05.410Z,29.10
2022-08-04T15:08:37.491Z,29.50
2022-08-04T15:11:05.392Z,28.78
2022-08-04T15:13:33.508Z,28.84
2022-08-04T15:16:08.034Z,28.54
2022-08-04T15:18:37.675Z,26.81
2022-08-04T15:21:09.038Z,27.81
2022-08-04T15:23:39.324Z,28.18
2022-08-04T15:26:10.362Z,27.44
2022-08-04T15:28:39.845Z,27.05
2022-08-04T15:31:10.602Z,27.43
2022-08-04T15:33:56.714Z,27.97
2022-08-04T15:36:35.560Z,28.24
2022-08-04T15:39:09.812Z,28.36
2022-08-04T15:41:46.263Z,28.44
2022-08-04T15:44:37.909Z,27.35
2022-08-04T15:47:14.158Z,28.17
2022-08-04T15:49:41.995Z,28.59
2022-08-04T15:52:12.939Z,28.27
2022-08-04T15:54:42.399Z,27.21
2022-08-04T15:57:58.406Z,27.37
2022-08-04T16:00:26.173Z,29.01
2022-08-04T16:02:53.897Z,28.93
2022-08-04T16:05:41.647Z,28.21
2022-08-04T16:08:17.758Z,29.25
2022-08-04T16:10:48.050Z,28.89
2022-08-04T16:13:19.850Z,29.02
2022-08-04T16:15:53.013Z,28.59
2022-08-04T16:18:26.022Z,28.77
2022-08-04T16:20:56.085Z,28.42
2022-08-04T16:24:06.134Z,28.23
2022-08-04T16:26:53.530Z,29.29
2022-08-04T16:29:37.927Z,28.86
2022-08-04T16:32:23.377Z,29.14
2022-08-04T16:34:57.015Z,29.54
2022-08-04T16:37:28.198Z,30.09
2022-08-04T16:40:34.520Z,30.71
2022-08-04T16:43:05.148Z,31.06
2022-08-04T16:45:47.649Z,30.07
2022-08-04T16:48:16.340Z,30.59
2022-08-04T16:50:49.601Z,31.45
2022-08-04T16:53:51.486Z,31.30
2022-08-04T16:56:10.420Z,31.44
2022-08-04T16:58:38.235Z,32.42
2022-08-04T17:01:34.126Z,32.64
2022-08-04T17:04:06.016Z,32.81
2022-08-04T17:06:35.979Z,33.60
2022-08-04T17:09:06.156Z,33.35
2022-08-04T17:11:35.591Z,33.81
2022-08-04T17:14:05.658Z,34.20
2022-08-04T17:16:35.824Z,34.81
2022-08-04T17:19:03.703Z,34.92
2022-08-04T17:21:32.700Z,35.59
2022-08-04T17:24:12.578Z,36.11
2022-08-04T17:26:51.742Z,37.28
2022-08-04T17:29:43.910Z,37.44
2022-08-04T17:32:15.665Z,38.24
2022-08-04T17:34:44.646Z,38.37
2022-08-04T17:37:37.843Z,38.77
2022-08-04T17:40:09.920Z,39.57
2022-08-04T17:42:41.374Z,40.14
2022-08-04T17:47:59.865Z,41.30
2022-08-04T17:50:28.137Z,41.86
2022-08-04T17:53:12.299Z,42.70
2022-08-04T17:55:42.354Z,43.55
2022-08-04T17:58:21.573Z,44.86
2022-08-04T18:01:10.627Z,46.79
2022-08-04T18:03:51.675Z,47.72
2022-08-04T18:06:20.863Z,47.37
2022-08-04T18:08:54.793Z,47.53
2022-08-04T18:11:28.814Z,48.48
2022-08-04T18:14:04.593Z,49.15
2022-08-04T18:16:32.395Z,49.73
2022-08-04T18:19:08.728Z,49.68
2022-08-04T18:21:46.524Z,50.24
2022-08-04T18:24:33.857Z,50.91
2022-08-04T18:27:03.090Z,51.61
2022-08-04T18:29:39.171Z,51.75
2022-08-04T18:32:09.097Z,52.84
2022-08-04T18:34:40.697Z,53.08
2022-08-04T18:38:03.772Z,53.11
2022-08-04T18:40:10.227Z,53.34
2022-08-04T18:42:44.375Z,54.44
2022-08-04T18:45:13.973Z,54.33
2022-08-04T18:47:58.786Z,54.44
2022-08-04T18:50:59.577Z,55.52
2022-08-04T18:53:15.037Z,57.45
2022-08-04T18:55:56.428Z,57.81
2022-08-04T18:58:27.675Z,58.51
2022-08-04T19:01:00.574Z,58.54
2022-08-04T19:03:32.979Z,58.30
2022-08-04T19:06:02.018Z,58.98
2022-08-04T19:08:34.313Z,59.95
2022-08-04T19:11:29.296Z,62.10
2022-08-04T19:13:54.532Z,64.04
2022-08-04T19:16:28.417Z,63.97
2022-08-04T19:18:56.633Z,65.46
2022-08-04T19:22:01.498Z,66.41
2022-08-04T19:27:07.050Z,68.66
2022-08-04T19:29:37.630Z,69.73
2022-08-04T19:32:15.162Z,70.07
2022-08-04T19:34:46.432Z,69.43
2022-08-04T19:37:56.104Z,69.75
2022-08-04T19:40:09.339Z,68.96
2022-08-04T19:42:37.464Z,69.46
2022-08-04T19:45:17.026Z,71.62
2022-08-04T19:48:17.761Z,71.14
2022-08-04T19:50:45.920Z,71.25
2022-08-04T19:53:18.771Z,70.70
2022-08-04T19:55:49.892Z,71.24
2022-08-04T19:58:19.758Z,72.39
2022-08-04T20:00:51.275Z,73.61
2022-08-04T20:03:21.140Z,74.99
2022-08-04T20:05:53.127Z,74.55
2022-08-04T20:08:24.334Z,74.86
2022-08-04T20:13:40.329Z,73.98
2022-08-04T20:16:28.484Z,75.14
2022-08-04T20:19:02.781Z,77.23
2022-08-04T20:21:53.973Z,78.42
2022-08-04T20:24:38.072Z,77.19
2022-08-04T20:27:14.745Z,76.20
2022-08-04T20:29:46.264Z,75.40
2022-08-04T20:32:18.278Z,75.51
2022-08-04T20:34:49.035Z,75.78
2022-08-04T20:37:17.134Z,74.82
2022-08-04T20:39:45.012Z,74.43
2022-08-04T20:42:27.323Z,75.12
2022-08-04T20:45:01.593Z,74.93
2022-08-04T20:47:34.989Z,75.44
2022-08-04T20:50:05.560Z,74.89
2022-08-04T20:52:37.671Z,75.31
2022-08-04T20:55:06.981Z,75.07
2022-08-04T20:57:50.055Z,76.01
2022-08-04T21:00:26.241Z,75.54
2022-08-04T21:02:57.411Z,75.73
2022-08-04T21:05:26.750Z,76.38
2022-08-04T21:07:56.648Z,76.71
2022-08-04T21:10:24.966Z,76.96
2022-08-04T21:12:53.997Z,77.26
2022-08-04T21:15:25.609Z,77.26
2022-08-04T21:17:57.996Z,78.18
2022-08-04T21:20:34.522Z,78.91
2022-08-04T21:23:04.985Z,79.01
2022-08-04T21:25:32.976Z,80.09
2022-08-04T21:28:11.360Z,81.28
2022-08-04T21:30:53.210Z,80.90
2022-08-04T21:33:23.408Z,80.23
2022-08-04T21:35:53.908Z,81.16
2022-08-04T21:38:28.050Z,80.78
2022-08-04T21:40:58.815Z,80.60
2022-08-04T21:43:42.579Z,81.34
2022-08-04T21:46:11.359Z,81.13
2022-08-04T21:48:39.619Z,80.94
2022-08-04T21:54:08.543Z,80.38
2022-08-04T21:56:37.963Z,80.54
2022-08-04T21:59:11.564Z,81.18
2022-08-04T22:01:51.781Z,82.30
2022-08-04T22:04:20.500Z,82.27
2022-08-04T22:09:41.411Z,83.21
2022-08-04T22:12:12.100Z,83.67
2022-08-04T22:14:40.077Z,83.46
2022-08-04T22:17:13.893Z,83.30
2022-08-04T22:19:55.698Z,83.29
2022-08-04T22:22:29.194Z,83.35
2022-08-04T22:24:58.754Z,83.32
2022-08-04T22:27:47.787Z,83.20
2022-08-04T22:30:23.116Z,82.64
2022-08-04T22:32:50.794Z,82.20
2022-08-04T22:35:30.905Z,82.30
2022-08-04T22:38:27.893Z,82.15
2022-08-04T22:40:58.070Z,82.19
2022-08-04T22:43:33.499Z,82.54
2022-08-04T22:46:03.800Z,82.70
2022-08-04T22:48:33.670Z,83.10
2022-08-04T22:51:01.651Z,83.58
2022-08-04T22:53:34.253Z,83.47
2022-08-04T22:56:09.242Z,83.64
2022-08-04T22:58:40.204Z,83.73
2022-08-04T23:01:08.941Z,84.36
2022-08-04T23:03:38.430Z,84.07
2022-08-04T23:06:11.043Z,84.29
2022-08-04T23:08:43.167Z,84.21
2022-08-04T23:11:14.895Z,84.43
2022-08-04T23:13:42.780Z,84.78
2022-08-04T23:16:11.182Z,84.91
2022-08-04T23:18:41.847Z,85.76
2022-08-04T23:21:11.355Z,86.90
2022-08-04T23:23:45.709Z,87.09
2022-08-04T23:26:27.486Z,86.93
2022-08-04T23:28:56.525Z,86.34
2022-08-04T23:31:25.007Z,86.40
2022-08-04T23:34:08.658Z,86.18
2022-08-04T23:36:36.484Z,85.95
2022-08-04T23:39:06.447Z,86.05
2022-08-04T23:41:53.502Z,87.33
2022-08-04T23:44:24.757Z,88.26
2022-08-04T23:46:58.627Z,87.51
2022-08-04T23:49:44.094Z,86.88
2022-08-04T23:52:15.752Z,86.64
2022-08-04T23:54:56.685Z,86.15
2022-08-04T23:58:02.301Z,86.18
